Time,TemperatureF,DewpointF,PressureIn,WindDirection,WindDirectionDegrees,WindSpeedMPH,WindSpeedGustMPH,Humidity,HourlyPrecipIn,Conditions,Clouds,dailyrainin,SoftwareType,DateUTC
2013-02-01 00:00:00,29.5,15.3,29.59,SE,135,0.0,2.0,55,0.00,,,0.21,WUHU216HW,2013-02-01 05:00:00,
2013-02-01 00:01:00,29.5,15.3,29.59,SSE,158,1.0,1.0,55,0.00,,,0.00,WUHU216HW,2013-02-01 05:01:00,
2013-02-01 00:03:00,29.3,15.1,29.59,West,261,1.0,2.0,55,0.00,,,0.00,WUHU216HW,2013-02-01 05:03:00,
2013-02-01 00:08:00,29.3,15.6,29.59,SSE,159,1.0,2.0,56,0.00,,,0.00,WUHU216HW,2013-02-01 05:08:00,
2013-02-01 00:13:00,29.2,15.4,29.58,SSE,160,1.0,1.0,56,0.00,,,0.00,WUHU216HW,2013-02-01 05:13:00,
2013-02-01 00:18:00,29.2,15.4,29.59,South,172,1.0,1.0,56,0.00,,,0.00,WUHU216HW,2013-02-01 05:18:00,
2013-02-01 00:23:00,29.0,15.2,29.58,South,187,1.0,2.0,56,0.00,,,0.00,WUHU216HW,2013-02-01 05:23:00,
2013-02-01 06:05:00,26.1,20.2,29.63,NW,315,0.0,0.0,78,0.00,,,0.00,WUHU216HW,2013-02-01 11:05:00,
2013-02-01 06:10:00,26.1,20.2,29.63,NNW,338,0.0,1.0,78,0.00,,,0.00,WUHU216HW,2013-02-01 11:10:00,
2013-02-01 06:15:00,25.9,20.0,29.63,NW,315,0.0,1.0,78,0.00,,,0.00,WUHU216HW,2013-02-01 11:15:00,
2013-02-01 06:20:00,25.9,20.0,29.64,WNW,293,1.0,1.0,78,0.00,,,0.00,WUHU216HW,2013-02-01 11:20:00,
2013-02-01 06:26:00,25.9,20.3,29.64,WNW,286,1.0,1.0,79,0.00,,,0.00,WUHU216HW,2013-02-01 11:26:00,
2013-02-01 06:31:00,25.7,19.5,29.65,NW,326,1.0,2.0,77,0.00,,,0.00,WUHU216HW,2013-02-01 11:31:00,
2013-02-01 06:36:00,25.6,19.0,29.65,NNW,327,2.0,4.0,76,0.00,,,0.00,WUHU216HW,2013-02-01 11:36:00,
2013-02-01 06:41:00,25.6,19.0,29.65,NW,309,1.0,4.0,76,0.00,,,0.00,WUHU216HW,2013-02-01 11:41:00,
2013-02-01 06:45:00,25.6,18.7,29.65,NNW,343,1.0,3.0,75,0.00,,,0.00,WUHU216HW,2013-02-01 11:45:00,
2013-02-01 06:51:00,25.6,18.4,29.66,WNW,290,1.0,3.0,74,0.00,,,0.00,WUHU216HW,2013-02-01 11:51:00,
2013-02-01 06:56:00,25.6,18.7,29.67,WNW,285,2.0,6.0,75,0.00,,,0.00,WUHU216HW,2013-02-01 11:56:00,
2013-02-01 07:01:00,25.0,18.8,29.67,WNW,293,4.0,6.0,77,0.00,,,0.00,WUHU216HW,2013-02-01 12:01:00,
2013-02-01 07:06:00,24.7,18.5,29.68,ESE,113,4.0,5.0,77,0.00,,,0.00,WUHU216HW,2013-02-01 12:06:00,
2013-02-01 07:11:00,24.1,18.3,29.68,NNW,327,2.0,5.0,78,0.00,,,0.00,WUHU216HW,2013-02-01 12:11:00,
2013-02-01 07:16:00,24.1,17.9,29.68,West,270,2.0,7.0,77,0.00,,,0.00,WUHU216HW,2013-02-01 12:16:00,
2013-02-01 07:21:00,23.8,17.3,29.69,SW,227,2.0,7.0,76,0.00,,,0.00,WUHU216HW,2013-02-01 12:21:00,
2013-02-01 07:26:00,23.8,17.0,29.69,East,91,1.0,6.0,75,0.00,,,0.00,WUHU216HW,2013-02-01 12:26:00,
2013-02-01 07:31:00,23.6,15.8,29.69,South,180,4.0,7.0,72,0.00,,,0.00,WUHU216HW,2013-02-01 12:31:00,
2013-02-01 17:51:00,20.7,5.8,29.98,West,270,4.0,4.0,52,0.00,,,0.00,WUHU216HW,2013-02-01 22:51:00,
2013-02-01 17:56:00,20.5,5.9,29.99,WNW,293,5.0,5.0,53,0.00,,,0.00,WUHU216HW,2013-02-01 22:56:00,
2013-02-01 18:01:00,20.5,5.9,29.99,West,273,4.0,6.0,53,0.00,,,0.00,WUHU216HW,2013-02-01 23:01:00,
2013-02-01 18:06:00,20.5,5.9,29.99,West,270,3.0,6.0,53,0.00,,,0.00,WUHU216HW,2013-02-01 23:06:00,
2013-02-01 18:11:00,20.3,5.8,29.99,NW,305,2.0,5.0,53,0.00,,,0.00,WUHU216HW,2013-02-01 23:11:00,
2013-02-01 18:16:00,20.3,5.8,30.00,WNW,282,4.0,5.0,53,0.00,,,0.00,WUHU216HW,2013-02-01 23:16:00,
2013-02-01 18:21:00,20.2,5.2,30.00,West,274,5.0,8.0,52,0.00,,,0.00,WUHU216HW,2013-02-01 23:21:00,
2013-02-01 18:26:00,20.2,5.2,30.00,West,270,7.0,8.0,52,0.00,,,0.00,WUHU216HW,2013-02-01 23:26:00,
2013-02-01 18:31:00,20.0,5.5,30.00,West,278,4.0,7.0,53,0.00,,,0.00,WUHU216HW,2013-02-01 23:31:00,
2013-02-01 18:36:00,19.8,5.3,30.01,West,276,4.0,7.0,53,0.00,,,0.00,WUHU216HW,2013-02-01 23:36:00,
2013-02-01 18:41:00,19.8,5.3,30.01,WNW,288,4.0,8.0,53,0.00,,,0.00,WUHU216HW,2013-02-01 23:41:00,
2013-02-01 18:46:00,19.8,5.7,30.01,NW,315,5.0,8.0,54,0.00,,,0.00,WUHU216HW,2013-02-01 23:46:00,
2013-02-01 18:51:00,19.8,5.3,30.02,WNW,293,5.0,6.0,53,0.00,,,0.00,WUHU216HW,2013-02-01 23:51:00,
2013-02-01 18:56:00,19.8,5.7,30.02,West,270,3.0,5.0,54,0.00,,,0.00,WUHU216HW,2013-02-01 23:56:00,
2013-02-01 19:01:00,19.6,5.5,30.03,NW,315,1.0,5.0,54,0.00,,,0.00,WUHU216HW,2013-02-02 00:01:00,
2013-02-01 19:06:00,19.6,5.5,30.03,West,265,1.0,5.0,54,0.00,,,0.00,WUHU216HW,2013-02-02 00:06:00,
2013-02-01 19:11:00,19.4,5.0,30.03,WNW,303,1.0,4.0,53,0.00,,,0.00,WUHU216HW,2013-02-02 00:11:00,
2013-02-01 19:16:00,19.4,5.0,30.03,WNW,291,4.0,5.0,53,0.00,,,0.00,WUHU216HW,2013-02-02 00:16:00,
2013-02-01 19:21:00,19.4,5.0,30.04,SW,225,3.0,5.0,53,0.00,,,0.00,WUHU216HW,2013-02-02 00:21:00,
2013-02-01 19:26:00,19.4,5.4,30.04,WNW,293,2.0,3.0,54,0.00,,,0.00,WUHU216HW,2013-02-02 00:26:00,
2013-02-01 19:31:00,19.4,5.0,30.04,NNE,15,1.0,7.0,53,0.00,,,0.00,WUHU216HW,2013-02-02 00:31:00,
2013-02-01 19:36:00,19.4,5.4,30.04,North,0,0.0,7.0,54,0.00,,,0.00,WUHU216HW,2013-02-02 00:36:00,
2013-02-01 19:41:00,19.3,5.2,30.04,NW,314,1.0,3.0,54,0.00,,,0.00,WUHU216HW,2013-02-02 00:41:00,
2013-02-01 19:46:00,19.3,4.8,30.04,WNW,285,3.0,5.0,53,0.00,,,0.00,WUHU216HW,2013-02-02 00:46:00,
2013-02-01 19:51:00,19.1,4.7,30.04,West,270,2.0,5.0,53,0.00,,,0.00,WUHU216HW,2013-02-02 00:51:00,
2013-02-01 19:56:00,19.1,4.2,30.04,WNW,293,3.0,3.0,52,0.00,,,0.00,WUHU216HW,2013-02-02 00:56:00,
2013-02-01 20:01:00,19.1,3.9,30.04,WNW,293,3.0,7.0,51,0.00,,,0.00,WUHU216HW,2013-02-02 01:01:00,
2013-02-01 20:06:00,18.9,4.1,30.04,NW,315,4.0,7.0,52,0.00,,,0.00,WUHU216HW,2013-02-02 01:06:00,
2013-02-01 20:11:00,18.9,4.1,30.05,WNW,290,2.0,5.0,52,0.00,,,0.00,WUHU216HW,2013-02-02 01:11:00,
2013-02-01 20:17:00,18.7,4.0,30.05,WSW,248,3.0,4.0,52,0.00,,,0.00,WUHU216HW,2013-02-02 01:17:00,
2013-02-01 20:22:00,18.7,4.0,30.05,West,270,1.0,3.0,52,0.00,,,0.00,WUHU216HW,2013-02-02 01:22:00,
2013-02-01 20:27:00,18.7,4.0,30.05,West,270,1.0,3.0,52,0.00,,,0.00,WUHU216HW,2013-02-02 01:27:00,
2013-02-01 20:47:00,18.4,5.2,30.05,SW,225,4.0,4.0,56,0.00,,,0.00,WUHU216HW,2013-02-02 01:47:00,
2013-02-01 20:52:00,18.4,5.2,30.05,SW,225,4.0,4.0,56,0.00,,,0.00,WUHU216HW,2013-02-02 01:52:00,
2013-02-01 21:00:00,18.2,5.4,30.05,SW,225,2.0,2.0,57,0.00,,,0.00,WUHU216HW,2013-02-02 02:00:00,
2013-02-01 21:05:00,18.2,5.4,30.05,SW,225,2.0,2.0,57,0.00,,,0.00,WUHU216HW,2013-02-02 02:05:00,
2013-02-01 21:30:00,18.2,4.6,30.05,East,90,3.0,3.0,55,0.00,,,0.00,WUHU216HW,2013-02-02 02:30:00,
2013-02-01 21:35:00,18.2,4.6,30.05,East,90,3.0,3.0,55,0.00,,,0.00,WUHU216HW,2013-02-02 02:35:00,
2013-02-01 22:00:00,18.2,5.1,30.07,SSE,158,1.0,1.0,56,0.00,,,0.00,WUHU216HW,2013-02-02 03:00:00,
2013-02-01 22:05:00,18.2,5.1,30.07,SSE,158,1.0,1.0,56,0.00,,,0.00,WUHU216HW,2013-02-02 03:05:00,
2013-02-01 22:30:00,18.2,5.1,30.07,NW,315,1.0,1.0,56,0.00,,,0.00,WUHU216HW,2013-02-02 03:30:00,
2013-02-01 22:35:00,18.2,5.1,30.07,NW,315,1.0,1.0,56,0.00,,,0.00,WUHU216HW,2013-02-02 03:35:00,
2013-02-01 23:00:00,17.8,4.7,30.08,SSE,158,1.0,1.0,56,0.00,,,0.00,WUHU216HW,2013-02-02 04:00:00,
2013-02-01 23:05:00,17.8,4.7,30.08,SSE,158,2.0,2.0,56,0.00,,,0.00,WUHU216HW,2013-02-02 04:05:00,
2013-02-01 23:30:00,17.5,4.8,30.09,NW,315,0.0,0.0,57,0.00,,,0.00,WUHU216HW,2013-02-02 04:30:00,
2013-02-01 23:35:00,17.5,4.8,30.09,NW,315,0.0,0.0,57,0.00,,,0.00,WUHU216HW,2013-02-02 04:35:00,